VABB/BOM METAR and TAF weather

Enter ICAO airport designator
Station Type Date Time Source
VABB METAR 2022/06/28 08:00 UTC NOAA

VABB 280800Z 17005KT 3000 HZ SCT018 FEW030CB BKN090 28/26 Q1005 NOSIG


Station Type Date Time Source
VABB Decoded METAR 2022/06/28 08:00 UTC NOAA

Bombay / Santacruz, India (VABB) 19-07N 072-51E 14M
Jun 28, 2022 - 04:00 AM EDT / 2022.06.28 0800 UTC
Wind: from the S (170 degrees) at 6 MPH (5 KT):0
Visibility: 1 mile(s):0
Sky conditions: mostly cloudy
Weather: haze; Cumulonimbus clouds observed
Temperature: 82 F (28 C)
Dew Point: 78 F (26 C)
Relative Humidity: 88%
Pressure (altimeter): 29.68 in. Hg (1005 hPa)
ob: VABB 280800Z 17005KT 3000 HZ SCT018 FEW030CB BKN090 28/26 Q1005 NOSIG
cycle: 8

Station Type Date Time Source
VABB TAF 2022/06/28 06:22 UTC NOAA

TAF VABB 280500Z 2806/2912 20010KT 2500 -RA HZ SCT018 FEW025TCU BKN090
TEMPO 2806/2812 20010G20KT 1500 -TSRA SHRA SCT018 FEW030CB OVC080
BECMG 2810/2812 22010KT 3000 -RA HZ FEW010 SCT018 FEW025TCU BKN090
TEMPO 2816/2820 1500 -TSRA SHRA SCT018 FEW030CB OVC080
BECMG 2818/2820 21008KT 2500 -RA HZ SCT018 FEW025TCU BKN090
BECMG 2906/2908 20010G20KT 3000 -RA HZ

Example: see airport list